createdAt,value
2018-05-26T00:01:50.456Z,95453.72
2018-05-26T00:04:16.440Z,95445.84
2018-05-26T00:06:42.425Z,95439.91
2018-05-26T00:09:08.419Z,95432.03
2018-05-26T00:11:34.411Z,95433.17
2018-05-26T00:14:00.398Z,95433.17
2018-05-26T00:16:26.405Z,95422.73
2018-05-26T00:18:52.378Z,95414.85
2018-05-26T00:21:18.360Z,95414.45
2018-05-26T00:23:44.344Z,95416.80
2018-05-26T00:26:10.327Z,95419.97
2018-05-26T00:28:36.322Z,95407.71
2018-05-26T00:31:02.296Z,95417.78
2018-05-26T00:33:28.285Z,95414.20
2018-05-26T00:35:54.268Z,95409.09
2018-05-26T00:38:20.243Z,95419.73
2018-05-26T00:40:46.229Z,95419.33
2018-05-26T00:43:12.206Z,95413.43
2018-05-26T00:45:38.187Z,95413.43
2018-05-26T00:48:04.166Z,95419.33
2018-05-26T00:50:30.157Z,95423.09
2018-05-26T00:52:56.141Z,95427.23
2018-05-26T00:55:22.125Z,95434.91
2018-05-26T00:57:48.116Z,95426.23
2018-05-26T01:00:14.107Z,95425.45
2018-05-26T01:02:40.080Z,95436.09
2018-05-26T01:05:06.071Z,95432.92
2018-05-26T01:07:32.102Z,95434.87
2018-05-26T01:09:58.081Z,95436.66
2018-05-26T01:12:24.071Z,95439.83
2018-05-26T01:14:50.065Z,95450.06
2018-05-26T01:17:16.085Z,95451.44
2018-05-26T01:19:42.034Z,95456.39
2018-05-26T01:22:08.045Z,95462.48
2018-05-26T01:24:34.030Z,95466.05
2018-05-26T01:27:00.004Z,95458.94
2018-05-26T01:29:25.988Z,95468.20
2018-05-26T01:31:51.969Z,95460.32
2018-05-26T01:34:17.949Z,95458.53
2018-05-26T01:36:43.930Z,95469.98
2018-05-26T01:39:09.908Z,95470.55
2018-05-26T01:41:35.895Z,95465.60
2018-05-26T01:44:01.874Z,95464.06
2018-05-26T01:46:27.858Z,95466.41
2018-05-26T01:48:53.839Z,95466.41
2018-05-26T01:51:19.825Z,95466.98
2018-05-26T01:53:45.801Z,95469.75
2018-05-26T01:56:11.792Z,95466.58
2018-05-26T01:58:37.770Z,95469.34
2018-05-26T02:01:03.793Z,95470.31
2018-05-26T02:03:29.810Z,95475.47
2018-05-26T02:05:55.756Z,95467.96
2018-05-26T02:08:21.764Z,95464.42
2018-05-26T02:10:47.738Z,95464.42
2018-05-26T02:13:13.751Z,95468.94
2018-05-26T02:15:39.740Z,95470.31
2018-05-26T02:18:05.714Z,95470.92
2018-05-26T02:20:31.694Z,95474.25
2018-05-26T02:22:57.680Z,95483.51
2018-05-26T02:25:23.660Z,95487.48
2018-05-26T02:27:49.633Z,95482.13
2018-05-26T02:30:15.648Z,95489.84
2018-05-26T02:32:41.650Z,95494.95
2018-05-26T02:35:07.635Z,95497.72
2018-05-26T02:37:33.609Z,95495.12
2018-05-26T02:39:59.595Z,95500.48
2018-05-26T02:42:25.627Z,95504.05
2018-05-26T02:44:51.616Z,95512.33
2018-05-26T02:47:17.593Z,95514.45
2018-05-26T02:49:43.582Z,95513.06
2018-05-26T02:52:09.591Z,95517.61
2018-05-26T02:54:35.582Z,95526.09
2018-05-26T02:57:01.564Z,95530.63
2018-05-26T02:59:27.584Z,95527.87
2018-05-26T03:01:53.572Z,95530.48
2018-05-26T03:04:19.582Z,95533.29
2018-05-26T03:06:45.566Z,95532.52
2018-05-26T03:09:11.550Z,95532.98
2018-05-26T03:11:37.537Z,95537.36
2018-05-26T03:14:03.551Z,95542.31
2018-05-26T03:16:29.527Z,95546.25
2018-05-26T03:18:55.516Z,95550.04
2018-05-26T03:21:21.499Z,95551.25
2018-05-26T03:23:47.483Z,95546.34
2018-05-26T03:26:13.466Z,95545.20
2018-05-26T03:28:39.485Z,95547.77
2018-05-26T03:31:05.482Z,95553.91
2018-05-26T03:33:31.473Z,95557.08
2018-05-26T03:35:57.471Z,95558.45
2018-05-26T03:38:23.449Z,95565.95
2018-05-26T03:40:49.430Z,95567.51
2018-05-26T03:43:15.416Z,95567.86
2018-05-26T03:45:41.402Z,95568.03
2018-05-26T03:48:07.386Z,95566.44
2018-05-26T03:50:33.378Z,95569.36
2018-05-26T03:52:59.362Z,95577.44
2018-05-26T03:55:25.343Z,95580.20
2018-05-26T03:57:51.320Z,95570.94
2018-05-26T04:00:17.330Z,95573.87
2018-05-26T04:02:43.307Z,95577.60
2018-05-26T04:05:09.288Z,95584.10
2018-05-26T04:07:35.262Z,95584.10
2018-05-26T04:10:01.239Z,95585.67
2018-05-26T04:12:27.229Z,95593.96
2018-05-26T04:14:53.210Z,95598.67
2018-05-26T04:17:19.193Z,95593.96
2018-05-26T04:19:45.176Z,95590.63
2018-05-26T04:22:11.155Z,95595.95
2018-05-26T04:24:37.160Z,95600.50
2018-05-26T04:27:03.184Z,95600.34
2018-05-26T04:29:29.161Z,95601.31
2018-05-26T04:31:55.142Z,95598.36
2018-05-26T04:34:21.123Z,95593.81
2018-05-26T04:36:47.095Z,95602.91
2018-05-26T04:39:13.081Z,95599.33
2018-05-26T04:41:39.059Z,95604.08
2018-05-26T04:44:05.051Z,95600.34
2018-05-26T04:46:31.054Z,95607.24
2018-05-26T04:48:57.040Z,95606.02
2018-05-26T04:51:23.024Z,95616.09
2018-05-26T04:53:49.006Z,95604.91
2018-05-26T04:56:14.987Z,95605.91
2018-05-26T04:58:40.981Z,95606.08
2018-05-26T05:01:06.967Z,95607.45
2018-05-26T05:03:32.948Z,95608.27
2018-05-26T05:05:58.942Z,95612.00
2018-05-26T05:08:24.919Z,95610.63
2018-05-26T05:10:50.906Z,95609.81
2018-05-26T05:13:16.888Z,95607.05
2018-05-26T05:15:42.922Z,95613.14
2018-05-26T05:18:08.903Z,95617.28
2018-05-26T05:20:34.911Z,95617.28
2018-05-26T05:23:00.903Z,95614.47
2018-05-26T05:25:26.885Z,95609.59
2018-05-26T05:27:52.874Z,95616.50
2018-05-26T05:30:18.887Z,95617.48
2018-05-26T05:32:44.883Z,95627.14
2018-05-26T05:35:10.892Z,95627.14
2018-05-26T05:37:36.932Z,95619.47
2018-05-26T05:40:02.872Z,95626.22
2018-05-26T05:42:28.928Z,95621.67
2018-05-26T05:44:54.935Z,95631.14
2018-05-26T05:47:20.905Z,95637.06
2018-05-26T05:49:46.900Z,95632.56
2018-05-26T05:52:12.875Z,95630.00
2018-05-26T05:54:38.860Z,95630.61
2018-05-26T05:57:04.845Z,95631.42
2018-05-26T05:59:30.832Z,95634.19
2018-05-26T06:01:56.821Z,95637.71
2018-05-26T06:04:22.815Z,95633.16
2018-05-26T06:06:48.796Z,95629.43
2018-05-26T06:09:14.786Z,95630.00
2018-05-26T06:11:40.769Z,95632.35
2018-05-26T06:14:06.819Z,95625.66
2018-05-26T06:16:32.798Z,95630.00
2018-05-26T06:18:58.778Z,95629.23
2018-05-26T06:21:24.758Z,95625.09
2018-05-26T06:23:50.782Z,95632.40
2018-05-26T06:26:16.793Z,95635.16
2018-05-26T06:28:42.759Z,95630.45
2018-05-26T06:31:08.768Z,95630.05
2018-05-26T06:33:34.776Z,95633.94
2018-05-26T06:36:00.774Z,95629.80
2018-05-26T06:38:26.716Z,95626.47
2018-05-26T06:40:52.726Z,95630.45
2018-05-26T06:43:18.702Z,95628.42
2018-05-26T06:45:44.684Z,95626.67
2018-05-26T06:48:10.731Z,95627.05
2018-05-26T06:50:36.684Z,95621.92
2018-05-26T06:53:02.668Z,95626.67
2018-05-26T06:55:28.668Z,95627.64
2018-05-26T06:57:54.650Z,95624.88
2018-05-26T07:00:21.132Z,95629.59
2018-05-26T07:02:47.189Z,95629.43
2018-05-26T07:05:13.131Z,95626.67
2018-05-26T07:07:39.112Z,95629.43
2018-05-26T07:10:05.093Z,95635.33
2018-05-26T07:12:31.081Z,95626.67
2018-05-26T07:14:57.056Z,95630.45
2018-05-26T07:17:23.073Z,95634.19
2018-05-26T07:19:49.025Z,95634.35
2018-05-26T07:22:15.024Z,95632.80
2018-05-26T07:24:41.007Z,95625.70
2018-05-26T07:27:06.995Z,95629.94
2018-05-26T07:29:32.982Z,95627.42
2018-05-26T07:31:58.967Z,95632.13
2018-05-26T07:34:24.954Z,95627.23
2018-05-26T07:36:50.934Z,95632.33
2018-05-26T07:39:16.938Z,95633.87
2018-05-26T07:41:42.929Z,95633.83
2018-05-26T07:44:08.920Z,95635.38
2018-05-26T07:46:35.540Z,95635.16
2018-05-26T07:49:01.524Z,95635.97
2018-05-26T07:51:28.143Z,95634.75
2018-05-26T07:53:54.128Z,95632.56
2018-05-26T07:56:20.105Z,95631.59
2018-05-26T07:58:46.126Z,95632.45
2018-05-26T08:01:12.205Z,95629.28
2018-05-26T08:03:38.191Z,95637.56
2018-05-26T08:06:04.183Z,95633.99
2018-05-26T08:08:30.171Z,95633.42
2018-05-26T08:10:56.167Z,95628.47
2018-05-26T08:13:22.152Z,95635.56
2018-05-26T08:15:48.135Z,95631.19
2018-05-26T08:18:14.119Z,95633.78
2018-05-26T08:20:40.500Z,95633.11
2018-05-26T08:23:06.486Z,95634.53
2018-05-26T08:25:32.461Z,95641.28
2018-05-26T08:27:58.573Z,95639.38
2018-05-26T08:30:24.550Z,95641.98
2018-05-26T08:32:50.560Z,95640.44
2018-05-26T08:35:16.587Z,95634.97
2018-05-26T08:37:42.569Z,95635.22
2018-05-26T08:40:08.545Z,95632.50
2018-05-26T08:42:34.576Z,95638.67
2018-05-26T08:45:00.552Z,95635.00
2018-05-26T08:47:26.543Z,95638.98
2018-05-26T08:49:52.524Z,95629.76
2018-05-26T08:52:18.562Z,95629.19
2018-05-26T08:54:44.566Z,95627.61
2018-05-26T08:57:10.555Z,95620.95
2018-05-26T08:59:36.540Z,95622.81
2018-05-26T09:02:02.520Z,95623.02
2018-05-26T09:04:28.512Z,95615.94
2018-05-26T09:06:54.504Z,95612.17
2018-05-26T09:09:20.487Z,95613.95
2018-05-26T09:11:46.525Z,95604.70
2018-05-26T09:14:12.470Z,95607.05
2018-05-26T09:16:38.491Z,95613.80
2018-05-26T09:19:04.449Z,95610.46
2018-05-26T09:21:30.428Z,95603.93
2018-05-26T09:23:56.463Z,95605.31
2018-05-26T09:26:22.412Z,95604.34
2018-05-26T09:28:48.438Z,95610.63
2018-05-26T09:31:14.473Z,95610.84
2018-05-26T09:33:40.419Z,95614.77
2018-05-26T09:36:06.411Z,95609.25
2018-05-26T09:38:32.396Z,95606.64
2018-05-26T09:40:58.378Z,95608.03
2018-05-26T09:43:24.381Z,95608.63
2018-05-26T09:45:50.386Z,95605.87
2018-05-26T09:48:16.364Z,95601.72
2018-05-26T09:50:42.492Z,95600.91
2018-05-26T09:53:08.476Z,95594.98
2018-05-26T09:55:34.469Z,95606.03
2018-05-26T09:58:00.454Z,95604.84
2018-05-26T10:00:26.437Z,95601.68
2018-05-26T10:02:52.462Z,95602.79
2018-05-26T10:05:18.464Z,95605.55
2018-05-26T10:07:44.460Z,95606.39
2018-05-26T10:10:10.431Z,95600.02
2018-05-26T10:12:36.411Z,95588.00
2018-05-26T10:15:02.401Z,95598.64
2018-05-26T10:17:28.423Z,95603.63
2018-05-26T10:19:54.413Z,95608.39
2018-05-26T10:22:20.394Z,95597.94
2018-05-26T10:24:46.484Z,95595.39
2018-05-26T10:27:12.558Z,95599.36
2018-05-26T10:29:38.553Z,95597.98
2018-05-26T10:32:04.531Z,95592.27
2018-05-26T10:34:30.539Z,95597.79
2018-05-26T10:36:56.532Z,95595.43
2018-05-26T10:39:22.548Z,95590.88
2018-05-26T10:41:48.528Z,95591.12
2018-05-26T10:44:14.516Z,95594.66
2018-05-26T10:46:40.502Z,95588.77
2018-05-26T10:49:06.481Z,95589.78
2018-05-26T10:51:32.459Z,95579.34
2018-05-26T10:53:58.435Z,95586.66
2018-05-26T10:56:24.468Z,95579.59
2018-05-26T10:58:50.464Z,95578.66
2018-05-26T11:01:16.439Z,95575.94
2018-05-26T11:03:42.460Z,95563.50
2018-05-26T11:06:08.435Z,95564.72
2018-05-26T11:08:34.416Z,95563.38
2018-05-26T11:11:00.417Z,95565.02
2018-05-26T11:13:26.451Z,95559.77
2018-05-26T11:15:52.407Z,95562.01
2018-05-26T11:18:18.394Z,95553.30
2018-05-26T11:20:44.418Z,95554.41
2018-05-26T11:23:10.401Z,95552.45
2018-05-26T11:25:36.389Z,95552.05
2018-05-26T11:28:02.382Z,95557.36
2018-05-26T11:30:28.666Z,95559.31
2018-05-26T11:32:54.618Z,95540.55
2018-05-26T11:35:20.592Z,95545.50
2018-05-26T11:37:46.586Z,95539.97
2018-05-26T11:40:12.638Z,95547.29
2018-05-26T11:42:38.621Z,95545.09
2018-05-26T11:45:04.616Z,95542.50
2018-05-26T11:47:30.595Z,95550.98
2018-05-26T11:49:56.593Z,95539.69
2018-05-26T11:52:22.609Z,95544.65
2018-05-26T11:54:48.591Z,95537.17
2018-05-26T11:57:14.604Z,95526.73
2018-05-26T11:59:40.589Z,95525.58
2018-05-26T12:02:06.631Z,95523.96
2018-05-26T12:04:32.586Z,95520.05
2018-05-26T12:06:58.572Z,95527.34
2018-05-26T12:09:24.563Z,95525.92
2018-05-26T12:11:50.541Z,95528.06
2018-05-26T12:14:16.557Z,95518.35
2018-05-26T12:16:42.551Z,95520.09
2018-05-26T12:19:08.589Z,95518.52
2018-05-26T12:21:34.601Z,95509.81
2018-05-26T12:24:00.577Z,95503.84
2018-05-26T12:26:26.557Z,95510.34
2018-05-26T12:28:52.547Z,95502.22
2018-05-26T12:31:18.601Z,95493.16
2018-05-26T12:33:44.584Z,95487.80
2018-05-26T12:36:10.590Z,95488.77
2018-05-26T12:38:36.643Z,95495.23
2018-05-26T12:41:02.600Z,95499.78
2018-05-26T12:43:28.618Z,95494.83
2018-05-26T12:45:54.590Z,95493.24
2018-05-26T12:48:20.568Z,95493.24
2018-05-26T12:50:46.549Z,95496.62
2018-05-26T12:53:12.535Z,95491.86
2018-05-26T12:55:38.516Z,95496.05
2018-05-26T12:58:04.494Z,95493.81
2018-05-26T13:00:30.474Z,95493.85
2018-05-26T13:02:56.452Z,95493.85
2018-05-26T13:05:22.436Z,95495.47
2018-05-26T13:07:48.412Z,95492.47
2018-05-26T13:10:14.427Z,95494.66
2018-05-26T13:12:40.404Z,95484.83
2018-05-26T13:15:06.381Z,95487.59
2018-05-26T13:17:32.394Z,95485.44
2018-05-26T13:19:58.381Z,95493.73
2018-05-26T13:22:24.358Z,95492.11
2018-05-26T13:24:50.354Z,95491.73
2018-05-26T13:27:16.338Z,95488.56
2018-05-26T13:29:42.386Z,95485.20
2018-05-26T13:32:08.336Z,95485.80
2018-05-26T13:34:34.315Z,95480.28
2018-05-26T13:37:00.328Z,95493.48
2018-05-26T13:39:26.283Z,95488.37
2018-05-26T13:41:52.268Z,95484.83
2018-05-26T13:44:18.247Z,95497.06
2018-05-26T13:46:44.281Z,95485.03
2018-05-26T13:49:10.271Z,95471.79
2018-05-26T13:51:36.321Z,95485.61
2018-05-26T13:54:02.252Z,95486.25
2018-05-26T13:56:28.276Z,95479.34
2018-05-26T13:58:54.248Z,95479.72
2018-05-26T14:01:20.198Z,95481.09
2018-05-26T14:03:46.184Z,95479.72
2018-05-26T14:06:12.171Z,95475.81
2018-05-26T14:08:38.200Z,95476.78
2018-05-26T14:11:04.187Z,95472.68
2018-05-26T14:13:30.156Z,95466.75
2018-05-26T14:15:56.143Z,95462.80
2018-05-26T14:18:22.137Z,95457.12
2018-05-26T14:20:48.118Z,95460.08
2018-05-26T14:23:14.145Z,95452.56
2018-05-26T14:25:40.708Z,95463.09
2018-05-26T14:28:08.269Z,95458.53
2018-05-26T14:30:34.959Z,95463.89
2018-05-26T14:33:02.901Z,95459.17
2018-05-26T14:35:29.314Z,95450.89
2018-05-26T14:37:55.948Z,95451.27
2018-05-26T14:40:22.590Z,95445.56
2018-05-26T14:42:49.430Z,95443.78
2018-05-26T14:45:15.473Z,95439.06
2018-05-26T14:47:41.660Z,95447.16
2018-05-26T14:50:07.710Z,95440.25
2018-05-26T14:52:33.646Z,95440.25
2018-05-26T14:54:59.616Z,95446.41
2018-05-26T14:57:25.598Z,95431.38
2018-05-26T14:59:51.592Z,95429.59
2018-05-26T15:02:17.579Z,95426.05
2018-05-26T15:05:14.077Z,95422.32
2018-05-26T15:07:23.016Z,95406.71
2018-05-26T15:09:49.148Z,95404.92
2018-05-26T15:12:15.141Z,95408.12
2018-05-26T15:14:41.121Z,95404.55
2018-05-26T15:17:07.127Z,95403.38
2018-05-26T15:19:33.157Z,95408.73
2018-05-26T15:21:59.268Z,95413.69
2018-05-26T15:24:25.322Z,95423.73
2018-05-26T15:26:51.305Z,95430.27
2018-05-26T15:29:17.329Z,95422.36
2018-05-26T15:31:43.369Z,95422.77
2018-05-26T15:34:09.370Z,95420.44
2018-05-26T15:36:35.359Z,95438.64
2018-05-26T15:39:01.356Z,95436.66
2018-05-26T15:41:27.330Z,95442.02
2018-05-26T15:43:53.323Z,95451.52
2018-05-26T15:46:19.307Z,95461.41
2018-05-26T15:48:45.297Z,95458.03
2018-05-26T15:51:11.315Z,95451.52
2018-05-26T15:53:37.304Z,95461.41
2018-05-26T15:56:03.288Z,95463.77
2018-05-26T15:58:29.277Z,95466.56
2018-05-26T16:00:56.763Z,95461.64
2018-05-26T16:03:23.094Z,95476.27
2018-05-26T16:05:50.792Z,95474.13
2018-05-26T16:08:22.753Z,95481.84
2018-05-26T16:10:49.564Z,95473.59
2018-05-26T16:13:17.538Z,95481.87
2018-05-26T16:15:44.720Z,95476.75
2018-05-26T16:18:13.184Z,95488.39
2018-05-26T16:20:41.587Z,95497.48
2018-05-26T16:23:08.480Z,95490.75
2018-05-26T16:25:36.129Z,95498.47
2018-05-26T16:28:03.135Z,95501.43
2018-05-26T16:30:29.845Z,95504.56
2018-05-26T16:32:57.815Z,95512.48
2018-05-26T16:35:28.471Z,95507.29
2018-05-26T16:37:54.883Z,95509.44
2018-05-26T16:40:24.728Z,95516.15
2018-05-26T16:42:56.768Z,95522.05
2018-05-26T16:45:24.080Z,95522.61
2018-05-26T16:47:50.893Z,95525.74
2018-05-26T16:50:22.513Z,95529.69
2018-05-26T16:52:47.732Z,95534.81
2018-05-26T16:55:14.463Z,95541.34
2018-05-26T16:57:41.205Z,95540.95
2018-05-26T17:00:07.545Z,95543.70
2018-05-26T17:02:33.710Z,95546.88
2018-05-26T17:04:59.724Z,95547.05
2018-05-26T17:07:25.747Z,95548.02
2018-05-26T17:09:51.756Z,95549.98
2018-05-26T17:12:17.745Z,95554.53
2018-05-26T17:14:43.754Z,95558.67
2018-05-26T17:17:09.738Z,95560.83
2018-05-26T17:19:35.736Z,95563.35
2018-05-26T17:22:01.726Z,95568.30
2018-05-26T17:24:27.714Z,95572.65
2018-05-26T17:26:53.708Z,95575.41
2018-05-26T17:29:19.785Z,95573.22
2018-05-26T17:31:45.766Z,95572.41
2018-05-26T17:34:11.751Z,95574.20
2018-05-26T17:36:37.874Z,95575.58
2018-05-26T17:39:03.838Z,95574.36
2018-05-26T17:41:29.826Z,95572.20
2018-05-26T17:43:55.862Z,95575.38
2018-05-26T17:46:21.856Z,95577.89
2018-05-26T17:48:47.843Z,95574.52
2018-05-26T17:51:13.839Z,95582.20
2018-05-26T17:53:39.821Z,95580.81
2018-05-26T17:56:05.820Z,95585.53
2018-05-26T17:58:31.809Z,95580.17
2018-05-26T18:00:57.791Z,95581.55
2018-05-26T18:03:23.791Z,95588.05
2018-05-26T18:06:04.346Z,95591.42
2018-05-26T18:08:33.188Z,95593.20
2018-05-26T18:11:13.800Z,95597.73
2018-05-26T18:13:35.767Z,95602.48
2018-05-26T18:16:12.218Z,95606.78
2018-05-26T18:18:38.182Z,95603.05
2018-05-26T18:21:04.200Z,95608.00
2018-05-26T18:23:30.228Z,95613.13
2018-05-26T18:25:56.335Z,95616.50
2018-05-26T18:28:22.298Z,95629.34
2018-05-26T18:30:49.243Z,95636.09
2018-05-26T18:33:14.295Z,95635.89
2018-05-26T18:35:40.423Z,95645.16
2018-05-26T18:38:06.414Z,95651.91
2018-05-26T18:40:32.397Z,95653.05
2018-05-26T18:42:58.491Z,95654.66
2018-05-26T18:45:24.507Z,95663.77
2018-05-26T18:47:50.495Z,95664.75
2018-05-26T18:50:16.478Z,95671.66
2018-05-26T18:52:42.466Z,95672.63
2018-05-26T18:55:08.500Z,95669.87
2018-05-26T18:57:34.496Z,95679.54
2018-05-26T19:00:00.483Z,95675.97
2018-05-26T19:02:26.470Z,95681.90
2018-05-26T19:04:52.505Z,95688.81
2018-05-26T19:07:18.506Z,95692.95
2018-05-26T19:09:44.488Z,95691.73
2018-05-26T19:12:10.472Z,95690.36
2018-05-26T19:14:36.485Z,95696.89
2018-05-26T19:17:02.471Z,95697.63
2018-05-26T19:19:28.471Z,95696.84
2018-05-26T19:21:54.492Z,95693.67
2018-05-26T19:24:20.495Z,95693.67
2018-05-26T19:26:46.475Z,95699.61
2018-05-26T19:29:12.483Z,95703.15
2018-05-26T19:31:38.488Z,95701.77
2018-05-26T19:34:04.485Z,95699.61
2018-05-26T19:36:30.472Z,95704.53
2018-05-26T19:38:56.462Z,95710.34
2018-05-26T19:41:22.448Z,95703.44
2018-05-26T19:43:48.459Z,95712.30
2018-05-26T19:46:14.451Z,95710.11
2018-05-26T19:48:40.437Z,95712.09
2018-05-26T19:51:06.462Z,95712.09
2018-05-26T19:53:32.511Z,95711.08
2018-05-26T19:55:58.492Z,95712.66
2018-05-26T19:58:24.546Z,95702.58
2018-05-26T20:00:50.530Z,95702.58
2018-05-26T20:03:16.679Z,95707.70
2018-05-26T20:05:42.670Z,95710.87
2018-05-26T20:08:08.731Z,95716.80
2018-05-26T20:10:34.734Z,95721.11
2018-05-26T20:13:05.070Z,95720.33
2018-05-26T20:15:31.186Z,95723.42
2018-05-26T20:17:57.452Z,95722.23
2018-05-26T20:20:23.622Z,95716.47
2018-05-26T20:22:49.584Z,95712.52
2018-05-26T20:25:15.754Z,95711.71
2018-05-26T20:27:41.743Z,95714.67
2018-05-26T20:30:07.763Z,95709.30
2018-05-26T20:32:33.755Z,95713.05
2018-05-26T20:34:59.737Z,95701.18
2018-05-26T20:37:25.727Z,95698.61
2018-05-26T20:39:51.707Z,95704.71
2018-05-26T20:42:17.689Z,95703.73
2018-05-26T20:44:43.667Z,95698.38
2018-05-26T20:47:09.667Z,95691.88
2018-05-26T20:49:35.744Z,95687.92
2018-05-26T20:52:01.723Z,95690.68
2018-05-26T20:54:27.708Z,95687.52
2018-05-26T20:56:53.704Z,95692.44
2018-05-26T20:59:19.721Z,95684.51
2018-05-26T21:01:45.705Z,95682.91
2018-05-26T21:04:11.683Z,95676.82
2018-05-26T21:06:37.678Z,95679.13
2018-05-26T21:09:03.659Z,95674.38
2018-05-26T21:11:29.660Z,95677.75
2018-05-26T21:13:55.653Z,95677.92
2018-05-26T21:16:21.637Z,95679.70
2018-05-26T21:18:47.623Z,95677.10
2018-05-26T21:21:13.641Z,95679.87
2018-05-26T21:23:39.614Z,95689.16
2018-05-26T21:26:05.600Z,95688.76
2018-05-26T21:28:31.611Z,95681.45
2018-05-26T21:30:57.563Z,95690.70
2018-05-26T21:33:23.548Z,95694.85
2018-05-26T21:35:49.531Z,95688.92
2018-05-26T21:38:15.523Z,95694.04
2018-05-26T21:40:41.510Z,95688.52
2018-05-26T21:43:07.487Z,95689.49
2018-05-26T21:45:33.474Z,95689.49
2018-05-26T21:47:59.466Z,95689.12
2018-05-26T21:50:25.489Z,95690.50
2018-05-26T21:52:51.473Z,95691.88
2018-05-26T21:55:17.454Z,95693.83
2018-05-26T21:57:43.435Z,95694.37
2018-05-26T22:00:09.430Z,95694.37
2018-05-26T22:02:35.410Z,95695.34
2018-05-26T22:05:01.387Z,95699.48
2018-05-26T22:07:27.366Z,95700.33
2018-05-26T22:09:53.348Z,95700.33
2018-05-26T22:12:19.323Z,95700.88
2018-05-26T22:14:45.303Z,95698.11
2018-05-26T22:17:11.280Z,95695.14
2018-05-26T22:19:37.266Z,95684.08
2018-05-26T22:22:03.252Z,95685.88
2018-05-26T22:24:29.236Z,95687.82
2018-05-26T22:26:55.219Z,95684.66
2018-05-26T22:29:21.245Z,95679.13
2018-05-26T22:31:47.199Z,95679.70
2018-05-26T22:34:13.199Z,95689.37
2018-05-26T22:36:39.190Z,95683.06
2018-05-26T22:39:05.179Z,95682.46
2018-05-26T22:41:31.162Z,95675.34
2018-05-26T22:43:57.143Z,95668.64
2018-05-26T22:46:23.136Z,95670.27
2018-05-26T22:48:49.205Z,95672.05
2018-05-26T22:51:15.176Z,95668.97
2018-05-26T22:53:41.168Z,95670.96
2018-05-26T22:56:07.146Z,95673.16
2018-05-26T22:58:33.132Z,95677.10
2018-05-26T23:00:59.124Z,95679.49
2018-05-26T23:03:25.094Z,95679.87
2018-05-26T23:05:51.139Z,95675.72
2018-05-26T23:08:17.059Z,95679.87
2018-05-26T23:10:43.050Z,95678.48
2018-05-26T23:13:09.028Z,95679.87
2018-05-26T23:15:35.012Z,95685.80
2018-05-26T23:18:01.000Z,95679.49
2018-05-26T23:20:27.021Z,95679.49
2018-05-26T23:22:52.990Z,95681.03
2018-05-26T23:25:18.978Z,95678.68
2018-05-26T23:27:44.957Z,95678.68
2018-05-26T23:30:10.948Z,95675.52
2018-05-26T23:32:36.933Z,95675.72
2018-05-26T23:35:02.914Z,95676.94
2018-05-26T23:37:28.900Z,95679.70
2018-05-26T23:39:54.883Z,95677.10
2018-05-26T23:42:20.887Z,95671.98
2018-05-26T23:44:46.860Z,95663.13
2018-05-26T23:47:12.841Z,95663.29
2018-05-26T23:49:38.815Z,95665.48
2018-05-26T23:52:04.805Z,95665.08
2018-05-26T23:54:30.793Z,95663.13
2018-05-26T23:56:56.775Z,95671.01
2018-05-26T23:59:22.762Z,95678.53
